Time;durP1;ratioP1;P1;durP2;ratioP2;P2;SDS_P1;SDS_P2;PMS_P1;PMS_P2;Temp;Humidity;BMP_temperature;BMP_pressure;BME280_temperature;BME280_humidity;BME280_pressure;Samples;Min_cycle;Max_cycle;Signal;HPM_P1;HPM_P2
2022/05/05 00:01:35;;;;;;;7.65;4.95;;;11.50;73.00;;;;;;5052296;28;20052;-67
2022/05/05 00:04:01;;;;;;;7.70;4.80;;;11.50;73.00;;;;;;5052227;28;20043;-67
2022/05/05 00:06:27;;;;;;;8.45;5.20;;;11.50;73.00;;;;;;5067553;28;20145;-67
2022/05/05 00:08:54;;;;;;;7.80;4.63;;;11.40;73.00;;;;;;5052411;28;20037;-67
2022/05/05 00:16:48;;;;;;;7.57;5.05;;;11.30;73.30;;;;;;5051803;28;20028;-67
2022/05/05 00:19:14;;;;;;;8.00;4.55;;;11.30;73.40;;;;;;5051945;28;20045;-67
2022/05/05 00:21:39;;;;;;;6.90;4.97;;;11.20;73.40;;;;;;5052168;28;20111;-67
2022/05/05 00:24:06;;;;;;;8.45;4.95;;;11.20;73.40;;;;;;5051954;28;20033;-67
2022/05/05 00:26:32;;;;;;;8.73;4.57;;;11.20;73.60;;;;;;5051859;28;20508;-67
2022/05/05 00:28:58;;;;;;;6.97;5.25;;;11.10;74.30;;;;;;5051916;28;20481;-67
2022/05/05 00:31:23;;;;;;;7.55;5.43;;;11.10;73.80;;;;;;5051773;28;20079;-67
2022/05/05 00:33:49;;;;;;;7.22;5.68;;;11.10;73.90;;;;;;5051897;28;20075;-67
2022/05/05 00:36:15;;;;;;;8.65;5.30;;;11.00;74.00;;;;;;5051807;28;20574;-67
2022/05/05 00:38:40;;;;;;;6.82;4.57;;;11.00;74.20;;;;;;5051958;28;20473;-67
2022/05/05 00:41:06;;;;;;;8.90;5.45;;;10.90;74.30;;;;;;5051853;28;20035;-67
2022/05/05 00:43:34;;;;;;;10.38;5.80;;;10.90;74.40;;;;;;5051775;28;20464;-67
2022/05/05 00:46:00;;;;;;;7.72;4.75;;;10.90;74.60;;;;;;5066918;28;20028;-67
2022/05/05 00:48:27;;;;;;;10.48;5.57;;;10.80;74.70;;;;;;5051773;28;20392;-67
2022/05/05 00:50:52;;;;;;;10.88;5.88;;;10.80;74.90;;;;;;5051878;28;20028;-67
2022/05/05 00:53:18;;;;;;;6.97;5.50;;;10.80;75.60;;;;;;5051876;28;20029;-67
2022/05/05 00:55:44;;;;;;;8.95;5.50;;;10.70;75.10;;;;;;5051636;28;20072;-67
2022/05/05 00:58:12;;;;;;;8.73;5.13;;;10.70;75.30;;;;;;5051986;28;20033;-67
2022/05/05 01:00:39;;;;;;;9.93;4.75;;;10.70;75.30;;;;;;5051698;28;20475;-67
2022/05/05 01:03:08;;;;;;;9.63;5.20;;;10.70;75.40;;;;;;5051980;28;20396;-67
2022/05/05 01:05:36;;;;;;;7.15;5.13;;;10.70;75.50;;;;;;5070939;28;20033;-67
2022/05/05 01:08:02;;;;;;;8.38;5.03;;;10.60;75.50;;;;;;5055528;28;20072;-67
2022/05/05 01:10:28;;;;;;;6.40;4.65;;;10.60;75.60;;;;;;5055488;28;20057;-67
2022/05/05 01:12:53;;;;;;;8.18;4.72;;;10.60;75.80;;;;;;5054083;28;20033;-67
2022/05/05 01:15:20;;;;;;;8.90;5.10;;;10.50;76.00;;;;;;5055366;28;20033;-67
2022/05/05 01:17:45;;;;;;;9.00;5.25;;;10.40;76.20;;;;;;5054822;28;20037;-67
2022/05/05 01:20:16;;;;;;;8.77;5.32;;;10.40;76.50;;;;;;5055335;28;20035;-67
2022/05/05 01:22:42;;;;;;;9.23;5.60;;;10.40;76.80;;;;;;5055235;28;20108;-67
2022/05/05 01:30:41;;;;;;;9.20;5.72;;;10.20;77.20;;;;;;5055180;28;20056;-67
2022/05/05 01:33:17;;;;;;;7.93;4.85;;;10.20;77.30;;;;;;5054753;28;20037;-67
2022/05/05 01:35:45;;;;;;;8.27;5.40;;;10.20;77.40;;;;;;5054965;28;20100;-67
2022/05/05 01:38:13;;;;;;;9.52;5.90;;;10.20;77.50;;;;;;5054812;28;20017;-67
2022/05/05 01:40:39;;;;;;;11.38;6.10;;;10.20;77.50;;;;;;5054960;28;20112;-67
2022/05/05 01:43:06;;;;;;;9.25;6.03;;;10.10;77.50;;;;;;5053712;28;20043;-67
2022/05/05 01:45:32;;;;;;;9.02;5.78;;;10.10;77.60;;;;;;5054855;28;20032;-67
2022/05/05 01:47:58;;;;;;;11.55;6.38;;;10.10;77.70;;;;;;5054617;28;20024;-67
2022/05/05 01:50:24;;;;;;;8.73;5.93;;;10.10;77.80;;;;;;5054735;28;20036;-67
2022/05/05 01:52:50;;;;;;;10.52;5.90;;;10.00;77.80;;;;;;5054813;28;20428;-67
2022/05/05 01:55:16;;;;;;;8.90;5.60;;;10.00;78.00;;;;;;5054607;28;20022;-67
2022/05/05 01:57:41;;;;;;;9.48;5.68;;;10.00;78.10;;;;;;5054500;28;20358;-67
2022/05/05 02:00:08;;;;;;;7.70;5.95;;;10.00;78.20;;;;;;5054593;28;20023;-67
2022/05/05 02:02:33;;;;;;;8.38;5.60;;;10.00;78.30;;;;;;5054512;28;20065;-67
2022/05/05 02:04:59;;;;;;;11.40;5.88;;;10.00;78.40;;;;;;5054109;28;20083;-67
2022/05/05 02:07:24;;;;;;;8.90;6.03;;;10.00;79.10;;;;;;5054342;28;20040;-67
2022/05/05 02:09:49;;;;;;;10.30;6.25;;;9.90;78.60;;;;;;5054358;28;20029;-67
2022/05/05 02:12:15;;;;;;;10.43;6.00;;;9.90;78.80;;;;;;5054219;28;20508;-67
2022/05/05 02:14:41;;;;;;;9.07;5.85;;;9.90;79.00;;;;;;5053529;28;20477;-67
2022/05/05 02:17:06;;;;;;;9.13;6.00;;;9.80;79.20;;;;;;5054216;28;20098;-67
2022/05/05 02:19:32;;;;;;;8.43;5.68;;;9.80;79.30;;;;;;5053887;28;20546;-67
2022/05/05 02:21:58;;;;;;;9.57;6.07;;;9.80;79.50;;;;;;5054355;28;20551;-67
2022/05/05 02:24:23;;;;;;;9.57;6.25;;;9.70;79.50;;;;;;5069573;28;20029;-67
2022/05/05 02:26:49;;;;;;;11.02;6.45;;;9.70;79.80;;;;;;5054058;28;20029;-67
2022/05/05 02:29:15;;;;;;;9.73;5.70;;;9.60;79.90;;;;;;5053932;28;20104;-67
2022/05/05 02:31:40;;;;;;;9.38;6.20;;;9.60;80.10;;;;;;5054067;28;20469;-67
2022/05/05 02:34:08;;;;;;;9.60;6.03;;;9.50;80.00;;;;;;5053661;28;20097;-67
2022/05/05 02:39:22;;;;;;;7.05;4.60;;;9.50;80.50;;;;;;5054167;28;20063;-67
2022/05/05 02:41:48;;;;;;;7.50;5.00;;;9.40;80.60;;;;;;5053741;28;20534;-66
2022/05/05 02:44:14;;;;;;;9.38;5.28;;;9.40;80.60;;;;;;5053670;28;20033;-67
2022/05/05 02:46:40;;;;;;;9.52;5.60;;;9.30;80.70;;;;;;5053548;28;20124;-67
2022/05/05 02:49:05;;;;;;;9.75;5.90;;;9.30;80.80;;;;;;5053377;28;20033;-67
2022/05/05 02:51:31;;;;;;;8.70;5.80;;;9.30;80.80;;;;;;5053730;28;20017;-67
2022/05/05 02:56:41;;;;;;;7.90;5.80;;;9.20;81.10;;;;;;5053510;28;20027;-67
2022/05/05 02:59:06;;;;;;;9.55;5.65;;;9.20;81.20;;;;;;5053290;28;20033;-67
2022/05/05 03:01:32;;;;;;;10.95;6.53;;;9.20;81.90;;;;;;5053404;28;20032;-67
2022/05/05 03:03:58;;;;;;;8.13;5.32;;;9.20;81.40;;;;;;5053173;28;20481;-67
2022/05/05 03:06:23;;;;;;;7.90;5.20;;;9.20;81.50;;;;;;5053378;28;20057;-67
2022/05/05 03:08:49;;;;;;;7.10;4.57;;;9.20;81.70;;;;;;5068467;28;20033;-67
2022/05/05 03:11:14;;;;;;;5.07;3.65;;;9.20;81.90;;;;;;5053311;28;20021;-67
2022/05/05 03:13:40;;;;;;;6.80;4.32;;;9.20;82.00;;;;;;5053208;28;20025;-67
2022/05/05 03:16:05;;;;;;;7.13;4.28;;;9.10;82.00;;;;;;5052912;28;20509;-67
2022/05/05 03:18:31;;;;;;;6.78;4.30;;;9.10;82.10;;;;;;5052919;28;20040;-67
2022/05/05 03:20:56;;;;;;;6.50;4.32;;;9.10;82.20;;;;;;5052851;28;20500;-67
2022/05/05 03:23:22;;;;;;;7.85;4.85;;;9.10;82.30;;;;;;5053108;28;20025;-67
2022/05/05 03:25:47;;;;;;;8.20;4.78;;;9.20;82.40;;;;;;5052222;28;20479;-67
2022/05/05 03:28:13;;;;;;;7.93;5.05;;;9.20;82.30;;;;;;5052753;28;20025;-67
2022/05/05 03:30:40;;;;;;;8.38;4.78;;;9.20;83.00;;;;;;5052682;28;20066;-67
2022/05/05 03:33:09;;;;;;;6.82;4.43;;;9.20;82.50;;;;;;5051597;28;20053;-67
2022/05/05 03:35:34;;;;;;;7.75;4.88;;;9.10;82.60;;;;;;5052598;28;20100;-67
2022/05/05 03:38:00;;;;;;;9.13;4.70;;;9.10;82.80;;;;;;5052573;28;20107;-67
2022/05/05 03:40:25;;;;;;;8.45;5.03;;;9.10;83.00;;;;;;5052905;28;20032;-67
2022/05/05 03:42:51;;;;;;;10.13;5.07;;;9.00;83.00;;;;;;5052571;28;20108;-67
2022/05/05 03:45:17;;;;;;;8.60;5.43;;;9.00;83.10;;;;;;5052533;28;20158;-67
2022/05/05 03:47:42;;;;;;;7.03;4.78;;;9.00;83.30;;;;;;5052489;28;20441;-67
2022/05/05 03:50:08;;;;;;;9.40;5.30;;;9.00;83.50;;;;;;5052310;28;20032;-67
2022/05/05 03:52:34;;;;;;;9.27;5.43;;;9.00;83.50;;;;;;5051301;28;20108;-67
2022/05/05 03:54:59;;;;;;;9.95;5.32;;;9.00;83.60;;;;;;5067785;28;20115;-67
2022/05/05 03:57:25;;;;;;;14.60;7.38;;;8.90;83.50;;;;;;5052744;28;20021;-67
2022/05/05 03:59:51;;;;;;;8.40;5.38;;;9.00;83.60;;;;;;5052172;28;20507;-67
2022/05/05 04:02:16;;;;;;;11.35;6.70;;;8.90;83.70;;;;;;5052413;28;20021;-67
2022/05/05 04:04:42;;;;;;;8.75;5.57;;;8.90;83.80;;;;;;5052316;28;20033;-67
2022/05/05 04:07:07;;;;;;;11.75;6.60;;;8.90;83.90;;;;;;5052028;28;20025;-67
2022/05/05 04:09:33;;;;;;;8.27;5.95;;;8.90;84.00;;;;;;5052185;28;20033;-67
2022/05/05 04:11:58;;;;;;;12.77;6.68;;;8.80;84.10;;;;;;5052234;28;20072;-67
2022/05/05 04:14:24;;;;;;;12.50;6.03;;;8.80;84.30;;;;;;5067481;28;20021;-67
2022/05/05 04:16:50;;;;;;;8.95;5.97;;;8.80;84.30;;;;;;5052228;28;20027;-67
2022/05/05 04:19:15;;;;;;;10.20;6.57;;;8.80;84.40;;;;;;5050478;28;20142;-67
2022/05/05 04:21:41;;;;;;;10.85;6.80;;;8.80;84.50;;;;;;5051667;28;20037;-67
2022/05/05 04:24:07;;;;;;;8.95;6.05;;;8.80;84.60;;;;;;5050883;28;20033;-67
2022/05/05 04:26:32;;;;;;;9.90;6.20;;;8.80;84.70;;;;;;5051865;28;20532;-67
2022/05/05 04:28:58;;;;;;;11.38;6.32;;;8.80;84.90;;;;;;5051800;28;20033;-67
2022/05/05 04:31:27;;;;;;;8.65;5.60;;;8.80;84.90;;;;;;5052082;28;20028;-67
2022/05/05 04:33:53;;;;;;;8.50;5.53;;;8.80;84.90;;;;;;5052094;28;20021;-67
2022/05/05 04:36:19;;;;;;;9.30;5.75;;;8.80;85.00;;;;;;5051711;28;20035;-67
2022/05/05 04:38:44;;;;;;;9.30;6.25;;;8.80;85.20;;;;;;5055084;28;20461;-67
2022/05/05 04:41:11;;;;;;;7.45;6.20;;;8.80;85.30;;;;;;5056055;28;20029;-67
2022/05/05 04:43:36;;;;;;;7.78;5.60;;;8.80;85.30;;;;;;5056036;28;20037;-66
2022/05/05 04:46:02;;;;;;;10.48;5.93;;;8.80;85.40;;;;;;5055823;28;20080;-67
2022/05/05 04:48:28;;;;;;;8.15;5.85;;;8.80;85.50;;;;;;5055861;28;20094;-67
2022/05/05 04:50:53;;;;;;;9.60;6.03;;;8.80;85.60;;;;;;5055866;28;20067;-67
2022/05/05 04:53:19;;;;;;;9.75;6.18;;;8.80;85.70;;;;;;5055793;28;20021;-67
2022/05/05 04:55:44;;;;;;;7.60;5.38;;;8.80;85.80;;;;;;5055752;28;20025;-67
2022/05/05 04:58:10;;;;;;;7.28;5.53;;;8.80;85.80;;;;;;5070926;28;20017;-67
2022/05/05 05:00:36;;;;;;;8.18;5.10;;;8.80;85.90;;;;;;5055761;28;20040;-67
2022/05/05 05:03:01;;;;;;;6.97;4.82;;;8.70;86.60;;;;;;5054485;28;20029;-67
2022/05/05 05:05:27;;;;;;;8.00;5.00;;;8.70;86.30;;;;;;5055164;28;20480;-67
2022/05/05 05:07:53;;;;;;;8.68;5.55;;;8.70;86.40;;;;;;5056118;28;20040;-67
2022/05/05 05:10:18;;;;;;;8.05;5.82;;;8.70;86.50;;;;;;5053851;28;20025;-67
2022/05/05 05:12:44;;;;;;;7.57;4.63;;;8.80;86.70;;;;;;5055624;28;20014;-67
2022/05/05 05:15:10;;;;;;;8.60;4.90;;;8.80;86.80;;;;;;5056323;28;20021;-67
2022/05/05 05:17:36;;;;;;;7.03;4.82;;;8.80;86.90;;;;;;5053557;28;20100;-66
2022/05/05 05:20:03;;;;;;;6.45;4.20;;;8.80;87.00;;;;;;5058954;28;20104;-67
2022/05/05 05:22:29;;;;;;;7.07;4.25;;;8.80;87.10;;;;;;5059631;28;20090;-67
2022/05/05 05:24:54;;;;;;;5.97;4.68;;;8.80;87.20;;;;;;5056647;28;20475;-67
2022/05/05 05:27:20;;;;;;;7.75;4.70;;;8.80;87.30;;;;;;5059055;28;20058;-67
2022/05/05 05:29:45;;;;;;;7.95;5.05;;;8.90;87.40;;;;;;5053241;28;20075;-67
2022/05/05 05:32:11;;;;;;;7.68;5.60;;;8.90;87.30;;;;;;5057368;28;20075;-67
2022/05/05 05:34:36;;;;;;;8.15;5.20;;;8.90;87.10;;;;;;5057880;28;20082;-67
2022/05/05 05:37:03;;;;;;;8.40;5.32;;;9.00;87.00;;;;;;5055899;28;20085;-67
2022/05/05 05:39:30;;;;;;;7.72;5.55;;;9.00;86.70;;;;;;5049225;28;20055;-67
2022/05/05 05:41:56;;;;;;;7.65;4.88;;;9.10;86.70;;;;;;5058861;28;20063;-67
2022/05/05 05:44:21;;;;;;;7.82;5.03;;;9.10;86.50;;;;;;5053380;28;20033;-67
2022/05/05 05:46:47;;;;;;;9.68;6.00;;;9.10;86.40;;;;;;5055619;28;20389;-67
2022/05/05 05:49:12;;;;;;;7.25;5.40;;;9.20;86.40;;;;;;5051831;28;20112;-67
2022/05/05 05:51:38;;;;;;;6.93;5.25;;;9.20;86.30;;;;;;5053302;28;20021;-67
2022/05/05 05:54:04;;;;;;;8.13;5.30;;;9.20;86.30;;;;;;5062228;28;20045;-67
2022/05/05 05:56:30;;;;;;;7.57;5.13;;;9.30;86.30;;;;;;5052619;28;20021;-67
2022/05/05 05:58:56;;;;;;;8.25;4.70;;;9.30;86.20;;;;;;5052666;28;20017;-67
2022/05/05 06:03:53;;;;;;;7.80;5.47;;;9.30;86.10;;;;;;5052812;28;20074;-67
2022/05/05 06:04:08;;;;;;;8.85;5.97;;;9.40;86.10;;;;;;5052322;28;20025;-67
2022/05/05 06:06:34;;;;;;;8.43;5.47;;;9.40;86.20;;;;;;5052564;28;20025;-67
2022/05/05 06:09:00;;;;;;;9.48;5.55;;;9.50;86.20;;;;;;5052288;28;20029;-67
2022/05/05 06:11:25;;;;;;;8.75;5.40;;;9.50;86.20;;;;;;5052413;28;20106;-67
2022/05/05 06:13:51;;;;;;;8.73;5.97;;;9.60;86.30;;;;;;5052362;28;20024;-67
2022/05/05 06:16:16;;;;;;;8.60;5.78;;;9.60;86.20;;;;;;5054037;28;20535;-67
2022/05/05 06:18:41;;;;;;;9.07;6.40;;;9.70;86.20;;;;;;5051210;28;20047;-67
2022/05/05 06:21:07;;;;;;;10.00;6.53;;;9.70;86.00;;;;;;5054075;28;20037;-67
2022/05/05 06:23:33;;;;;;;11.40;6.80;;;9.80;86.00;;;;;;5064920;28;20606;-67
2022/05/05 06:25:59;;;;;;;13.00;8.02;;;9.90;86.10;;;;;;5052080;28;20495;-67
2022/05/05 06:28:24;;;;;;;10.25;8.00;;;9.90;86.30;;;;;;5052264;28;20025;-67
2022/05/05 06:30:50;;;;;;;11.82;8.40;;;10.00;86.40;;;;;;5051636;28;20028;-67
2022/05/05 06:33:15;;;;;;;12.73;8.40;;;10.10;86.70;;;;;;5052759;28;20476;-67
2022/05/05 06:35:41;;;;;;;18.25;11.30;;;10.20;86.90;;;;;;5053977;28;20033;-67
2022/05/05 06:38:06;;;;;;;18.48;11.25;;;10.30;87.60;;;;;;5053097;28;20421;-67
2022/05/05 06:40:34;;;;;;;14.52;10.02;;;10.30;87.70;;;;;;5052870;28;20480;-67
2022/05/05 06:43:00;;;;;;;13.23;8.77;;;10.40;87.80;;;;;;5064696;28;20104;-67
2022/05/05 06:45:25;;;;;;;12.73;7.80;;;10.50;87.60;;;;;;5069317;28;20447;-67
2022/05/05 06:47:51;;;;;;;10.77;7.35;;;10.60;87.60;;;;;;5053459;28;20083;-67
2022/05/05 06:50:21;;;;;;;10.25;7.03;;;10.70;87.40;;;;;;5051875;28;20048;-67
2022/05/05 06:52:47;;;;;;;;;;;10.80;87.20;;;;;;5053836;28;20025;-66
2022/05/05 06:55:12;;;;;;;9.38;5.82;;;10.90;87.00;;;;;;5052315;28;20265;-66
2022/05/05 06:57:38;;;;;;;10.13;6.13;;;11.00;87.00;;;;;;5053426;28;20476;-66
2022/05/05 07:00:05;;;;;;;13.07;6.30;;;11.20;86.60;;;;;;5053282;28;20029;-66
2022/05/05 07:02:30;;;;;;;9.23;5.93;;;11.30;86.30;;;;;;5052299;28;20413;-66
2022/05/05 07:07:40;;;;;;;10.57;5.15;;;11.70;85.30;;;;;;5052957;28;20052;-66
2022/05/05 07:12:50;;;;;;;10.13;6.22;;;12.10;84.50;;;;;;5053270;28;20075;-66
2022/05/05 07:15:15;;;;;;;9.90;5.68;;;12.20;83.90;;;;;;5052485;28;20029;-66
2022/05/05 07:17:41;;;;;;;11.85;6.18;;;12.30;83.40;;;;;;5052598;28;20041;-66
2022/05/05 07:20:08;;;;;;;7.28;5.32;;;12.50;82.80;;;;;;5052974;28;20041;-66
2022/05/05 07:22:33;;;;;;;7.40;4.80;;;12.60;82.20;;;;;;5052979;28;20025;-66
2022/05/05 07:24:59;;;;;;;7.28;4.65;;;12.80;81.70;;;;;;5052670;28;20400;-66
2022/05/05 07:27:25;;;;;;;6.75;4.18;;;12.90;81.00;;;;;;5052381;28;20040;-66
2022/05/05 07:29:50;;;;;;;8.45;5.05;;;13.20;80.30;;;;;;5052558;28;20033;-66
2022/05/05 07:32:16;;;;;;;6.78;4.63;;;13.30;79.70;;;;;;5052665;28;20036;-66
2022/05/05 07:34:42;;;;;;;7.20;5.35;;;13.50;79.00;;;;;;5051148;28;20056;-67
2022/05/05 07:37:07;;;;;;;6.63;4.57;;;13.70;78.50;;;;;;5066413;28;20028;-67
2022/05/05 07:39:33;;;;;;;6.55;4.20;;;13.80;78.00;;;;;;5049723;28;20128;-66
2022/05/05 07:41:59;;;;;;;10.18;5.00;;;13.90;77.40;;;;;;5050682;28;20472;-67
2022/05/05 07:44:24;;;;;;;6.43;3.95;;;14.10;77.00;;;;;;5058042;28;20031;-66
2022/05/05 07:46:50;;;;;;;6.22;3.95;;;14.20;76.30;;;;;;5063106;28;20020;-66
2022/05/05 07:49:15;;;;;;;6.88;4.20;;;14.30;75.90;;;;;;5050969;28;20036;-67
2022/05/05 07:51:41;;;;;;;6.22;4.25;;;14.40;75.50;;;;;;5050830;28;20384;-67
2022/05/05 07:56:52;;;;;;;8.65;5.47;;;14.70;74.50;;;;;;5049622;28;20502;-67
2022/05/05 07:59:19;;;;;;;10.20;5.57;;;14.80;73.60;;;;;;5054651;28;20029;-67
2022/05/05 08:01:44;;;;;;;9.50;6.50;;;14.90;73.00;;;;;;5049240;28;20017;-67
2022/05/05 08:04:10;;;;;;;7.30;4.70;;;15.10;72.40;;;;;;5049988;28;20048;-68
2022/05/05 08:06:35;;;;;;;7.82;4.47;;;15.20;72.00;;;;;;5050324;28;20025;-67
2022/05/05 08:09:02;;;;;;;6.85;5.05;;;15.40;71.40;;;;;;5050518;28;20488;-67
2022/05/05 08:11:28;;;;;;;8.13;4.82;;;15.50;71.00;;;;;;5050810;28;20029;-67
2022/05/05 08:13:54;;;;;;;9.38;4.53;;;15.70;70.60;;;;;;5051600;28;20074;-67
2022/05/05 08:16:20;;;;;;;8.25;4.75;;;15.90;70.20;;;;;;5052137;28;20017;-67
2022/05/05 08:18:46;;;;;;;8.00;4.63;;;16.00;69.80;;;;;;5051726;28;20045;-67
2022/05/05 08:21:11;;;;;;;8.77;5.30;;;16.20;69.40;;;;;;5051912;28;20503;-67
2022/05/05 08:23:38;;;;;;;12.65;6.68;;;16.30;68.70;;;;;;5052152;28;20025;-67
2022/05/05 08:28:48;;;;;;;12.20;7.07;;;16.50;67.90;;;;;;5051853;28;20044;-67
2022/05/05 08:31:14;;;;;;;14.02;8.55;;;16.70;66.30;;;;;;5051750;28;20388;-67
2022/05/05 08:33:39;;;;;;;15.20;9.63;;;16.80;66.20;;;;;;5051976;28;20105;-67
2022/05/05 08:36:06;;;;;;;14.73;8.93;;;17.00;65.80;;;;;;5051803;28;20053;-67
2022/05/05 08:38:32;;;;;;;12.85;7.15;;;17.20;65.30;;;;;;5051704;28;20021;-66
2022/05/05 08:40:58;;;;;;;11.00;6.90;;;17.30;65.20;;;;;;5051541;28;20481;-67
2022/05/05 08:43:24;;;;;;;12.65;7.60;;;17.50;65.10;;;;;;5052022;28;20029;-67
2022/05/05 08:45:50;;;;;;;12.35;8.00;;;17.60;64.80;;;;;;5051972;28;20544;-67
2022/05/05 08:48:17;;;;;;;16.98;11.60;;;17.80;64.30;;;;;;5051796;28;20028;-67
2022/05/05 08:50:44;;;;;;;19.02;12.35;;;17.80;62.30;;;;;;5051625;28;20033;-67
2022/05/05 08:53:14;;;;;;;18.67;10.85;;;17.70;61.50;;;;;;5051562;28;20025;-67
2022/05/05 08:55:40;;;;;;;;;;;17.70;61.90;;;;;;5051993;28;20013;-67
2022/05/05 08:58:05;;;;;;;13.25;8.85;;;17.80;62.30;;;;;;5051201;28;20265;-67
2022/05/05 09:00:31;;;;;;;12.90;8.73;;;18.00;62.10;;;;;;5051678;28;20029;-66
2022/05/05 09:03:01;;;;;;;14.95;8.80;;;18.10;61.60;;;;;;5050387;28;20098;-66
2022/05/05 09:05:44;;;;;;;16.60;10.68;;;18.30;61.40;;;;;;5051728;28;20025;-66
2022/05/05 09:08:30;;;;;;;14.90;9.30;;;18.40;60.10;;;;;;5066598;28;20123;-66
2022/05/05 09:11:01;;;;;;;15.32;9.25;;;18.60;60.40;;;;;;5050266;28;20083;-67
2022/05/05 09:13:32;;;;;;;12.88;8.18;;;18.60;60.50;;;;;;5049880;28;20449;-67
2022/05/05 09:15:58;;;;;;;12.30;9.48;;;18.80;60.40;;;;;;5049407;28;20017;-67
2022/05/05 09:18:29;;;;;;;14.13;9.70;;;19.00;60.00;;;;;;5049619;28;20374;-66
2022/05/05 09:20:56;;;;;;;11.45;7.72;;;19.10;59.50;;;;;;5049172;28;20599;-66
2022/05/05 09:23:28;;;;;;;10.95;7.68;;;19.20;59.40;;;;;;5051206;28;20384;-66
2022/05/05 09:25:54;;;;;;;10.80;8.10;;;19.30;59.20;;;;;;5054533;28;20038;-66
2022/05/05 09:28:24;;;;;;;11.27;7.90;;;19.40;59.20;;;;;;5053155;28;20032;-66
2022/05/05 09:30:51;;;;;;;10.77;7.88;;;19.40;59.20;;;;;;5053149;28;20052;-67
2022/05/05 09:33:38;;;;;;;9.43;7.15;;;19.50;59.00;;;;;;5053165;28;20025;-66
2022/05/05 09:36:05;;;;;;;12.35;8.55;;;19.70;58.80;;;;;;5052697;28;20075;-67
2022/05/05 09:38:50;;;;;;;11.90;8.25;;;19.60;58.90;;;;;;5052794;28;20025;-66
2022/05/05 09:41:16;;;;;;;10.90;8.13;;;19.70;58.60;;;;;;5053203;28;20063;-67
2022/05/05 09:43:42;;;;;;;10.13;7.72;;;19.70;58.70;;;;;;5052874;28;20481;-67
2022/05/05 09:46:23;;;;;;;11.52;8.20;;;19.70;58.60;;;;;;5053008;28;20116;-66
2022/05/05 09:48:52;;;;;;;15.90;11.40;;;19.80;58.30;;;;;;5053454;28;20029;-66
2022/05/05 09:51:21;;;;;;;14.85;10.45;;;19.70;57.60;;;;;;5070233;28;20033;-66
2022/05/05 09:59:33;;;;;;;16.33;11.57;;;19.60;58.20;;;;;;5053032;28;20497;-66
2022/05/05 10:02:07;;;;;;;14.35;9.18;;;19.50;56.90;;;;;;5053533;28;20039;-66
2022/05/05 10:04:36;;;;;;;11.60;8.20;;;19.50;57.50;;;;;;5052634;28;20051;-67
2022/05/05 10:07:03;;;;;;;12.50;9.20;;;19.60;57.60;;;;;;5053391;28;20033;-66
2022/05/05 10:09:29;;;;;;;18.75;12.45;;;19.70;57.20;;;;;;5054252;28;20033;-66
2022/05/05 10:11:55;;;;;;;14.00;9.93;;;19.50;56.70;;;;;;5053678;28;20446;-66
2022/05/05 10:14:21;;;;;;;13.68;9.38;;;19.60;57.30;;;;;;5052570;28;20067;-67
2022/05/05 10:16:46;;;;;;;11.50;8.50;;;19.60;57.40;;;;;;5052898;28;20044;-66
2022/05/05 10:19:12;;;;;;;15.02;9.20;;;19.70;57.40;;;;;;5053915;28;20434;-66
2022/05/05 10:21:46;;;;;;;11.20;7.50;;;19.80;57.30;;;;;;5054197;28;20032;-66
2022/05/05 10:24:12;;;;;;;10.57;7.82;;;20.00;57.20;;;;;;5054049;28;20032;-66
2022/05/05 10:26:39;;;;;;;12.02;8.75;;;20.20;57.10;;;;;;5054198;28;20116;-66
2022/05/05 10:29:25;;;;;;;12.55;8.48;;;20.30;56.90;;;;;;5053713;28;20060;-67
2022/05/05 10:31:50;;;;;;;10.77;8.02;;;20.40;56.60;;;;;;5051591;28;20032;-66
2022/05/05 10:34:17;;;;;;;13.20;9.13;;;20.60;56.60;;;;;;5053849;28;20029;-66
2022/05/05 10:36:58;;;;;;;13.38;9.45;;;20.70;56.40;;;;;;5051941;28;20021;-66
2022/05/05 10:39:26;;;;;;;12.93;9.38;;;20.90;55.90;;;;;;5052935;28;20025;-66
2022/05/05 10:42:12;;;;;;;14.77;10.15;;;21.10;55.50;;;;;;5053535;28;20021;-66
2022/05/05 10:45:16;;;;;;;12.05;9.43;;;21.20;54.80;;;;;;5052681;28;20029;-67
2022/05/05 10:47:55;;;;;;;13.38;9.77;;;21.30;54.80;;;;;;5050857;28;20025;-66
2022/05/05 10:50:39;;;;;;;14.35;9.75;;;21.40;54.70;;;;;;5040881;28;20033;-67
2022/05/05 10:53:06;;;;;;;12.88;10.50;;;21.50;54.50;;;;;;5055049;28;20108;-66
2022/05/05 10:55:41;;;;;;;10.55;8.13;;;21.50;54.40;;;;;;5050500;28;20051;-67
2022/05/05 10:58:09;;;;;;;16.40;12.48;;;21.60;54.40;;;;;;5051927;28;20103;-67
2022/05/05 11:00:40;;;;;;;18.77;13.98;;;21.70;54.50;;;;;;5051553;28;20033;-67
2022/05/05 11:03:11;;;;;;;17.48;12.90;;;21.80;54.30;;;;;;5051916;28;20029;-67
2022/05/05 11:05:38;;;;;;;15.35;11.82;;;21.90;54.20;;;;;;5051723;28;20020;-67
2022/05/05 11:08:09;;;;;;;17.67;11.95;;;22.00;54.00;;;;;;5051719;28;20029;-68
2022/05/05 11:10:41;;;;;;;17.90;12.93;;;22.10;53.80;;;;;;5049413;28;20020;-67
2022/05/05 11:13:07;;;;;;;18.55;13.82;;;22.20;54.20;;;;;;5059543;28;20100;-67
2022/05/05 11:21:32;;;;;;;20.88;14.93;;;22.60;54.30;;;;;;5050759;28;20079;-67
2022/05/05 11:23:59;;;;;;;19.02;15.25;;;22.50;53.80;;;;;;5051525;28;20459;-67
2022/05/05 11:26:26;;;;;;;21.15;15.35;;;22.70;53.90;;;;;;5050112;28;20025;-68
2022/05/05 11:28:52;;;;;;;18.88;13.60;;;22.90;53.60;;;;;;5048224;28;20020;-67
2022/05/05 11:31:28;;;;;;;16.30;13.32;;;23.10;53.60;;;;;;5050735;28;20028;-67
2022/05/05 11:33:58;;;;;;;18.42;13.25;;;23.30;53.20;;;;;;5048215;28;20013;-67
2022/05/05 11:36:29;;;;;;;26.30;18.67;;;23.50;52.90;;;;;;5055482;28;20431;-67
2022/05/05 11:38:55;;;;;;;18.23;14.05;;;23.30;51.60;;;;;;5051121;28;20071;-67
2022/05/05 11:41:22;;;;;;;18.60;14.45;;;23.30;52.30;;;;;;5051166;28;20401;-67
2022/05/05 11:46:32;;;;;;;13.40;11.40;;;23.80;52.30;;;;;;5050679;28;20519;-67
2022/05/05 11:48:59;;;;;;;16.65;12.18;;;24.20;52.70;;;;;;5050311;28;20473;-67
2022/05/05 11:51:30;;;;;;;14.15;10.40;;;24.60;51.50;;;;;;5051027;28;20017;-67
2022/05/05 11:54:23;;;;;;;15.00;11.98;;;24.80;50.90;;;;;;5050643;28;20021;-67
2022/05/05 11:56:50;;;;;;;13.90;12.05;;;24.80;50.40;;;;;;5050570;28;20637;-67
2022/05/05 12:02:23;;;;;;;16.52;13.27;;;25.40;49.60;;;;;;5049293;28;20067;-67
2022/05/05 12:04:53;;;;;;;19.38;14.98;;;25.70;49.00;;;;;;5050021;28;20934;-67
2022/05/05 12:07:21;;;;;;;12.90;11.20;;;25.90;48.70;;;;;;5049300;28;20075;-67
2022/05/05 12:09:55;;;;;;;14.43;11.15;;;26.20;48.70;;;;;;5051433;28;20059;-68
2022/05/05 12:12:24;;;;;;;12.95;10.18;;;26.40;48.20;;;;;;5050345;28;20029;-68
2022/05/05 12:14:58;;;;;;;12.88;10.50;;;26.50;48.00;;;;;;5051464;28;20035;-67
2022/05/05 12:17:36;;;;;;;9.50;8.25;;;26.70;47.70;;;;;;5051850;28;20021;-67
2022/05/05 12:20:05;;;;;;;12.20;10.00;;;26.80;47.60;;;;;;5050480;28;20037;-67
2022/05/05 12:22:32;;;;;;;;;;;27.00;47.30;;;;;;5050570;28;20053;-67
2022/05/05 12:25:03;;;;;;;14.27;11.50;;;26.70;45.10;;;;;;5051088;28;19923;-67
2022/05/05 12:27:28;;;;;;;10.65;8.90;;;26.50;46.20;;;;;;5051852;28;20029;-68
2022/05/05 12:29:55;;;;;;;11.00;9.55;;;26.70;46.50;;;;;;5051763;28;20091;-67
2022/05/05 12:32:21;;;;;;;13.45;10.88;;;26.90;46.50;;;;;;5051717;28;20017;-67
2022/05/05 12:34:47;;;;;;;11.68;10.10;;;27.10;46.10;;;;;;5051830;28;20086;-68
2022/05/05 12:37:20;;;;;;;11.38;8.38;;;27.20;46.00;;;;;;5051800;28;20018;-67
2022/05/05 12:39:50;;;;;;;11.60;9.48;;;27.20;45.80;;;;;;5049908;28;20052;-68
2022/05/05 12:42:17;;;;;;;11.77;10.07;;;27.20;45.40;;;;;;5050754;28;20032;-67
2022/05/05 12:44:44;;;;;;;12.13;9.35;;;27.00;45.40;;;;;;5051563;28;20033;-67
2022/05/05 12:47:10;;;;;;;10.63;8.32;;;26.90;45.30;;;;;;5051524;28;20029;-67
2022/05/05 12:49:37;;;;;;;8.25;7.18;;;26.80;45.20;;;;;;5067323;28;20043;-67
2022/05/05 12:52:04;;;;;;;11.27;9.50;;;27.00;45.00;;;;;;5051625;28;20060;-67
2022/05/05 12:59:58;;;;;;;11.80;10.05;;;27.00;44.40;;;;;;5054960;28;20086;-67
2022/05/05 13:02:24;;;;;;;12.80;10.98;;;27.10;44.70;;;;;;5054747;28;20029;-68
2022/05/05 13:04:50;;;;;;;7.35;6.63;;;27.10;45.00;;;;;;5055104;28;20029;-67
2022/05/05 13:07:16;;;;;;;10.15;8.63;;;27.20;44.70;;;;;;5054978;28;20099;-67
2022/05/05 13:09:42;;;;;;;9.75;7.93;;;27.20;44.90;;;;;;5054860;28;20124;-68
2022/05/05 13:12:08;;;;;;;8.07;6.97;;;27.30;44.80;;;;;;5054941;28;20033;-67
2022/05/05 13:14:33;;;;;;;8.25;7.32;;;27.40;44.50;;;;;;5070121;28;20388;-68
2022/05/05 13:17:00;;;;;;;8.38;7.35;;;27.60;44.30;;;;;;5062813;28;20021;-67
2022/05/05 13:19:26;;;;;;;9.10;6.90;;;27.60;44.10;;;;;;5053093;28;20049;-68
2022/05/05 13:21:52;;;;;;;8.25;6.82;;;27.70;43.70;;;;;;5053199;28;21069;-67
2022/05/05 13:24:17;;;;;;;11.15;9.85;;;27.70;43.60;;;;;;5053744;28;20033;-67
2022/05/05 13:26:45;;;;;;;11.90;9.55;;;27.80;43.60;;;;;;5069546;28;20028;-67
2022/05/05 13:29:11;;;;;;;10.38;9.30;;;27.80;43.80;;;;;;5053786;28;20473;-67
2022/05/05 13:31:37;;;;;;;11.02;9.20;;;27.70;43.70;;;;;;5066202;28;20024;-67
2022/05/05 13:34:02;;;;;;;9.05;7.63;;;27.70;43.70;;;;;;5053391;28;20430;-67
2022/05/05 13:36:28;;;;;;;8.30;7.30;;;27.80;43.70;;;;;;5054135;28;20081;-67